Home   Weather   Canada   Yarmouth County   Past weeks
Flag for Canada

Past Weather in Yarmouth County, Nova Scotia, Canada — Yesterday and Last 2 Weeks

Currently: 63 °F. Low clouds. (Weather station: Yarmouth, Canada). See more current weather

Past Weather in Yarmouth County — Graph

°F

Yarmouth County Temperature Yesterday

Maximum temperature yesterday: 72 °F (at 11:00 am)
Minimum temperature yesterday: 57 °F (at 2:00 am)
Average temperature yesterday: 64 °F

High & Low Weather Summary for the Past Weeks

 TemperatureHumidityPressure
High75 °F (Jul 15, 2:00 pm)100% (Jul 9, 11:00 pm)30.26 "Hg (Jul 9, 11:00 pm)
Low34 °F (Jul 11, 11:21 pm)50% (Jul 22, 3:00 pm)29.72 "Hg (Jul 17, 5:00 am)
Average65 °F96%29.98 "Hg
* Reported Jul 9 11:00 pm — Jul 24 11:12 pm, Yarmouth County. Weather by CustomWeather, © 2024

Note: Actual official high and low records may vary slightly from our data, if they occured in-between our weather recording intervals... More about our weather records

Yarmouth County Weather History for the Previous 24 Hours

Scroll right to see more
 ConditionsComfort  
Time TempWeatherWind HumidityBarometerVisibility
11:12 pm
Wed, Jul 24
63 °FLow clouds.6 mph100%30.20 "Hg15 mi
11:00 pm63 °FOvercast.2 mph100%30.20 "Hg15 mi
10:00 pm63 °FMostly cloudy.2 mph100%30.21 "Hg15 mi
9:00 pm64 °FPassing clouds.6 mph100%30.20 "Hg12 mi
8:00 pm64 °FPartly sunny.2 mph100%30.21 "Hg15 mi
7:00 pm64 °FCloudy.10 mph100%30.23 "Hg12 mi
6:00 pm66 °FBroken clouds.6 mph94%30.23 "Hg12 mi
5:00 pm64 °FMore clouds than sun.6 mph100%30.24 "Hg12 mi
4:00 pm68 °FPartly sunny.6 mph88%30.25 "Hg12 mi
3:00 pm68 °FOvercast.10 mph88%30.24 "Hg15 mi
2:00 pm70 °FPartly sunny.10 mph88%30.24 "Hg15 mi
1:00 pm72 °FPartly sunny.6 mph83%30.24 "Hg15 mi
12:00 pm68 °FPartly sunny.10 mph94%30.26 "Hg15 mi
11:00 am72 °FPartly sunny.6 mph83%30.24 "Hg12 mi
10:00 am68 °FMostly cloudy.6 mph94%30.24 "Hg12 mi
9:00 am66 °FLow clouds.6 mph100%30.24 "Hg10 mi
8:28 am64 °FFog.6 mph100%30.24 "Hg3 mi
8:15 am64 °FFog.6 mph100%30.23 "Hg2 mi
8:08 am63 °FFog.6 mph100%30.22 "Hg2 mi
7:44 am63 °FFog.2 mph100%30.23 "Hg0 mi
7:00 am61 °FFog.6 mph100%30.22 "Hg0 mi
6:00 am61 °FFog.6 mph100%30.19 "Hg0 mi
5:40 am61 °FFog.6 mph100%30.19 "Hg2 mi
5:00 am63 °FPassing clouds.6 mph100%30.19 "Hg15 mi
4:00 am63 °FOvercast.6 mph100%30.19 "Hg15 mi
3:00 am61 °FPassing clouds.6 mph100%30.18 "Hg15 mi
2:00 am57 °FPassing clouds.6 mph100%30.16 "Hg15 mi
1:38 am61 °FPassing clouds.2 mph100%30.16 "Hg15 mi
1:00 am63 °FPassing clouds.2 mph100%30.16 "Hg15 mi
12:00 am63 °FPartly cloudy.2 mph100%30.15 "Hg15 mi
Weather by CustomWeather, © 2024

See weather overview